Airfield :
LOGIN :

Register | Disclaimer

   EN    FR    IT 

 










Legend :    VFR   Marginal VFR   IFR   Intensive IFR   Very Intensive IFR
Visi :
Ceiling :
>= 8 km
>= 3000ft
5 to 8 km
1000 to 3000 ft
1500m to 5 km
500 to 1000 ft
800 to 1500m
200 to 500 ft
< 800m
< 200 ft
Symbols :   Thunderstorms  Fog  Heavy snow  Heavy precipitations  Wind > 20 kt
SIGMETs :     Misc.  Thunderstorms  Icing  Turbulence  Mountain Waves  Volcanic Ashes






- Airport Elevation : 526 ft
- IATA code : LTN


EGGW - London Luton

CURRENT METAR :
  • 102320Z AUTO 25009KT 9999 FEW035 06/03 Q1007

EXPIRED METARs :
  • 102250Z AUTO 26013KT 9999 NCD 06/04 Q1006
  • 102220Z AUTO 25014KT 9999 SCT021 07/05 Q1005
  • 102150Z AUTO 25014KT 9999 BKN020 BKN027 08/06 Q1005
  • 102120Z AUTO 25014KT 9999 FEW015 08/07 Q1004
  • 102050Z AUTO 25015KT 9999 -RA BKN012 08/07 Q1004

TAF TAF EGGW
Valid from the 11 at 00:00 until the 12 at 00:00 UTC


102304Z 1100/1124 25010KT 9999 FEW030
PROB30 1104/1108 8000
BECMG 1105/1108 19008KT
TEMPO 1114/1118 6000 SHRA BKN009
BECMG 1116/1118 26010KT
ATIS : +44 1582 395 204



MET'MAP, your aeronautical weather chart ! - Copyright ORBIFLY December 2007 - Disclaimer

ORBIFLY MET'MAP TEAM :

Programming & Development : Alexandra Zaïnal
Concept & original design : Baudouin d'Aumeries
Assistance for programming : Marc-Olivier Méhu
Technical & hardware support : Manuel Goepfert

Contact : metmap@orbifly.com




SOURCES & CREDITS :

   NOAA